sensor_id;sensor_type;location;lat;lon;timestamp;P1;durP1;ratioP1;P2;durP2;ratioP2
6205;SDS011;3136;48.788;9.772;2023-05-08T00:00:19;13.27;;;7.40;;
6205;SDS011;3136;48.788;9.772;2023-05-08T00:02:45;9.57;;;7.00;;
6205;SDS011;3136;48.788;9.772;2023-05-08T00:05:11;8.67;;;6.33;;
6205;SDS011;3136;48.788;9.772;2023-05-08T00:07:36;7.90;;;7.00;;
6205;SDS011;3136;48.788;9.772;2023-05-08T00:10:03;8.50;;;6.90;;
6205;SDS011;3136;48.788;9.772;2023-05-08T00:12:29;10.00;;;7.30;;
6205;SDS011;3136;48.788;9.772;2023-05-08T00:14:54;8.57;;;6.67;;
6205;SDS011;3136;48.788;9.772;2023-05-08T00:17:20;8.87;;;6.53;;
6205;SDS011;3136;48.788;9.772;2023-05-08T00:19:46;7.57;;;6.67;;
6205;SDS011;3136;48.788;9.772;2023-05-08T00:22:12;7.40;;;6.67;;
6205;SDS011;3136;48.788;9.772;2023-05-08T00:24:37;10.10;;;7.00;;
6205;SDS011;3136;48.788;9.772;2023-05-08T00:27:03;10.93;;;7.90;;
6205;SDS011;3136;48.788;9.772;2023-05-08T00:29:28;8.07;;;7.13;;
6205;SDS011;3136;48.788;9.772;2023-05-08T00:31:54;13.20;;;7.40;;
6205;SDS011;3136;48.788;9.772;2023-05-08T00:34:20;8.97;;;6.57;;
6205;SDS011;3136;48.788;9.772;2023-05-08T00:36:45;8.03;;;6.10;;
6205;SDS011;3136;48.788;9.772;2023-05-08T00:39:11;7.10;;;6.30;;
6205;SDS011;3136;48.788;9.772;2023-05-08T00:41:37;6.87;;;6.10;;
6205;SDS011;3136;48.788;9.772;2023-05-08T00:44:02;11.03;;;6.80;;
6205;SDS011;3136;48.788;9.772;2023-05-08T00:46:28;9.40;;;6.90;;
6205;SDS011;3136;48.788;9.772;2023-05-08T00:48:55;10.17;;;7.70;;
6205;SDS011;3136;48.788;9.772;2023-05-08T00:51:21;8.60;;;7.73;;
6205;SDS011;3136;48.788;9.772;2023-05-08T00:53:47;9.90;;;8.67;;
6205;SDS011;3136;48.788;9.772;2023-05-08T00:56:14;11.37;;;8.23;;
6205;SDS011;3136;48.788;9.772;2023-05-08T00:58:41;8.97;;;7.70;;
6205;SDS011;3136;48.788;9.772;2023-05-08T01:01:07;8.33;;;7.43;;
6205;SDS011;3136;48.788;9.772;2023-05-08T01:03:33;8.77;;;7.27;;
6205;SDS011;3136;48.788;9.772;2023-05-08T01:06:03;10.00;;;8.03;;
6205;SDS011;3136;48.788;9.772;2023-05-08T01:08:29;9.17;;;7.80;;
6205;SDS011;3136;48.788;9.772;2023-05-08T01:17:09;11.27;;;9.60;;
6205;SDS011;3136;48.788;9.772;2023-05-08T01:25:28;9.63;;;7.67;;
6205;SDS011;3136;48.788;9.772;2023-05-08T01:28:27;11.53;;;9.20;;
6205;SDS011;3136;48.788;9.772;2023-05-08T01:31:04;11.60;;;9.60;;
6205;SDS011;3136;48.788;9.772;2023-05-08T01:36:53;16.47;;;9.27;;
6205;SDS011;3136;48.788;9.772;2023-05-08T01:42:06;12.20;;;9.40;;
6205;SDS011;3136;48.788;9.772;2023-05-08T01:44:56;11.10;;;9.10;;
6205;SDS011;3136;48.788;9.772;2023-05-08T01:47:30;13.27;;;8.33;;
6205;SDS011;3136;48.788;9.772;2023-05-08T01:50:04;8.33;;;7.27;;
6205;SDS011;3136;48.788;9.772;2023-05-08T01:52:40;9.20;;;8.30;;
6205;SDS011;3136;48.788;9.772;2023-05-08T01:55:15;10.13;;;8.37;;
6205;SDS011;3136;48.788;9.772;2023-05-08T01:57:48;11.60;;;7.70;;
6205;SDS011;3136;48.788;9.772;2023-05-08T02:00:18;10.60;;;8.00;;
6205;SDS011;3136;48.788;9.772;2023-05-08T02:02:46;8.80;;;7.90;;
6205;SDS011;3136;48.788;9.772;2023-05-08T02:05:13;11.33;;;8.10;;
6205;SDS011;3136;48.788;9.772;2023-05-08T02:07:41;9.33;;;8.30;;
6205;SDS011;3136;48.788;9.772;2023-05-08T02:10:08;11.30;;;8.83;;
6205;SDS011;3136;48.788;9.772;2023-05-08T02:12:35;9.67;;;8.67;;
6205;SDS011;3136;48.788;9.772;2023-05-08T02:15:03;14.10;;;8.43;;
6205;SDS011;3136;48.788;9.772;2023-05-08T02:17:31;9.90;;;8.57;;
6205;SDS011;3136;48.788;9.772;2023-05-08T02:20:00;13.13;;;7.70;;
6205;SDS011;3136;48.788;9.772;2023-05-08T02:22:28;9.90;;;8.10;;
6205;SDS011;3136;48.788;9.772;2023-05-08T02:24:56;13.47;;;8.73;;
6205;SDS011;3136;48.788;9.772;2023-05-08T02:27:23;11.97;;;8.10;;
6205;SDS011;3136;48.788;9.772;2023-05-08T02:29:50;9.20;;;7.83;;
6205;SDS011;3136;48.788;9.772;2023-05-08T02:32:18;10.33;;;8.63;;
6205;SDS011;3136;48.788;9.772;2023-05-08T02:34:46;11.80;;;8.97;;
6205;SDS011;3136;48.788;9.772;2023-05-08T02:37:13;10.00;;;8.07;;
6205;SDS011;3136;48.788;9.772;2023-05-08T02:39:42;10.73;;;8.00;;
6205;SDS011;3136;48.788;9.772;2023-05-08T02:42:09;12.17;;;7.57;;
6205;SDS011;3136;48.788;9.772;2023-05-08T02:44:35;9.53;;;8.07;;
6205;SDS011;3136;48.788;9.772;2023-05-08T02:49:51;9.47;;;8.37;;
6205;SDS011;3136;48.788;9.772;2023-05-08T02:52:28;12.90;;;6.93;;
6205;SDS011;3136;48.788;9.772;2023-05-08T02:57:49;8.13;;;7.30;;
6205;SDS011;3136;48.788;9.772;2023-05-08T03:00:29;8.83;;;7.17;;
6205;SDS011;3136;48.788;9.772;2023-05-08T03:03:01;9.57;;;8.13;;
6205;SDS011;3136;48.788;9.772;2023-05-08T03:05:37;9.80;;;7.53;;
6205;SDS011;3136;48.788;9.772;2023-05-08T03:08:09;8.60;;;7.17;;
6205;SDS011;3136;48.788;9.772;2023-05-08T03:10:42;8.97;;;7.33;;
6205;SDS011;3136;48.788;9.772;2023-05-08T03:13:10;10.80;;;7.27;;
6205;SDS011;3136;48.788;9.772;2023-05-08T03:15:41;10.47;;;8.00;;
6205;SDS011;3136;48.788;9.772;2023-05-08T03:18:15;10.17;;;7.20;;
6205;SDS011;3136;48.788;9.772;2023-05-08T03:20:45;11.67;;;8.03;;
6205;SDS011;3136;48.788;9.772;2023-05-08T03:23:13;11.23;;;7.57;;
6205;SDS011;3136;48.788;9.772;2023-05-08T03:25:42;16.93;;;12.57;;
6205;SDS011;3136;48.788;9.772;2023-05-08T03:28:08;15.67;;;11.80;;
6205;SDS011;3136;48.788;9.772;2023-05-08T03:30:35;14.63;;;10.70;;
6205;SDS011;3136;48.788;9.772;2023-05-08T03:33:04;13.33;;;9.07;;
6205;SDS011;3136;48.788;9.772;2023-05-08T03:35:35;10.90;;;8.33;;
6205;SDS011;3136;48.788;9.772;2023-05-08T03:38:01;11.33;;;8.50;;
6205;SDS011;3136;48.788;9.772;2023-05-08T03:40:27;9.33;;;8.30;;
6205;SDS011;3136;48.788;9.772;2023-05-08T03:42:53;10.53;;;7.77;;
6205;SDS011;3136;48.788;9.772;2023-05-08T03:45:20;8.40;;;7.50;;
6205;SDS011;3136;48.788;9.772;2023-05-08T03:47:46;10.90;;;7.53;;
6205;SDS011;3136;48.788;9.772;2023-05-08T03:50:12;9.50;;;6.70;;
6205;SDS011;3136;48.788;9.772;2023-05-08T03:52:37;8.10;;;7.07;;
6205;SDS011;3136;48.788;9.772;2023-05-08T03:55:03;11.07;;;6.53;;
6205;SDS011;3136;48.788;9.772;2023-05-08T03:57:32;10.10;;;7.17;;
6205;SDS011;3136;48.788;9.772;2023-05-08T04:08:33;9.30;;;7.03;;
6205;SDS011;3136;48.788;9.772;2023-05-08T04:11:11;9.10;;;7.60;;
6205;SDS011;3136;48.788;9.772;2023-05-08T04:13:44;10.90;;;7.17;;
6205;SDS011;3136;48.788;9.772;2023-05-08T04:16:22;11.40;;;7.30;;
6205;SDS011;3136;48.788;9.772;2023-05-08T04:18:53;10.87;;;7.03;;
6205;SDS011;3136;48.788;9.772;2023-05-08T04:21:25;12.20;;;7.90;;
6205;SDS011;3136;48.788;9.772;2023-05-08T04:23:52;8.17;;;7.30;;
6205;SDS011;3136;48.788;9.772;2023-05-08T04:26:21;8.17;;;7.23;;
6205;SDS011;3136;48.788;9.772;2023-05-08T04:28:47;9.87;;;7.33;;
6205;SDS011;3136;48.788;9.772;2023-05-08T04:31:14;7.20;;;6.50;;
6205;SDS011;3136;48.788;9.772;2023-05-08T04:33:41;6.93;;;6.23;;
6205;SDS011;3136;48.788;9.772;2023-05-08T04:36:12;6.50;;;5.90;;
6205;SDS011;3136;48.788;9.772;2023-05-08T04:38:38;8.07;;;6.00;;
6205;SDS011;3136;48.788;9.772;2023-05-08T04:41:05;7.27;;;6.17;;
6205;SDS011;3136;48.788;9.772;2023-05-08T04:43:31;9.83;;;6.67;;
6205;SDS011;3136;48.788;9.772;2023-05-08T04:45:58;8.60;;;6.60;;
6205;SDS011;3136;48.788;9.772;2023-05-08T04:48:23;8.73;;;6.43;;
6205;SDS011;3136;48.788;9.772;2023-05-08T04:50:49;7.13;;;6.20;;
6205;SDS011;3136;48.788;9.772;2023-05-08T04:53:15;6.63;;;5.97;;
6205;SDS011;3136;48.788;9.772;2023-05-08T04:55:41;9.77;;;6.40;;
6205;SDS011;3136;48.788;9.772;2023-05-08T04:58:06;7.87;;;5.87;;
6205;SDS011;3136;48.788;9.772;2023-05-08T05:00:34;7.17;;;5.87;;
6205;SDS011;3136;48.788;9.772;2023-05-08T05:02:59;7.47;;;6.77;;
6205;SDS011;3136;48.788;9.772;2023-05-08T05:05:25;9.20;;;8.30;;
6205;SDS011;3136;48.788;9.772;2023-05-08T05:07:51;9.60;;;7.87;;
6205;SDS011;3136;48.788;9.772;2023-05-08T05:10:16;11.37;;;8.37;;
6205;SDS011;3136;48.788;9.772;2023-05-08T05:12:42;10.20;;;8.57;;
6205;SDS011;3136;48.788;9.772;2023-05-08T05:15:07;9.23;;;8.33;;
6205;SDS011;3136;48.788;9.772;2023-05-08T05:17:34;9.40;;;8.20;;
6205;SDS011;3136;48.788;9.772;2023-05-08T05:19:59;10.37;;;8.00;;
6205;SDS011;3136;48.788;9.772;2023-05-08T05:22:25;9.53;;;7.90;;
6205;SDS011;3136;48.788;9.772;2023-05-08T05:24:51;9.40;;;8.50;;
6205;SDS011;3136;48.788;9.772;2023-05-08T05:27:17;9.57;;;8.67;;
6205;SDS011;3136;48.788;9.772;2023-05-08T05:29:42;9.50;;;7.87;;
6205;SDS011;3136;48.788;9.772;2023-05-08T05:32:08;11.47;;;9.30;;
6205;SDS011;3136;48.788;9.772;2023-05-08T05:34:35;10.93;;;9.13;;
6205;SDS011;3136;48.788;9.772;2023-05-08T05:37:00;11.73;;;9.07;;
6205;SDS011;3136;48.788;9.772;2023-05-08T05:39:26;11.53;;;9.60;;
6205;SDS011;3136;48.788;9.772;2023-05-08T05:41:51;10.60;;;9.13;;
6205;SDS011;3136;48.788;9.772;2023-05-08T05:44:17;17.57;;;10.93;;
6205;SDS011;3136;48.788;9.772;2023-05-08T05:46:43;12.10;;;10.80;;
6205;SDS011;3136;48.788;9.772;2023-05-08T05:49:08;19.50;;;11.27;;
6205;SDS011;3136;48.788;9.772;2023-05-08T05:51:34;12.67;;;10.47;;
6205;SDS011;3136;48.788;9.772;2023-05-08T05:53:59;13.30;;;11.57;;
6205;SDS011;3136;48.788;9.772;2023-05-08T05:56:25;15.30;;;13.57;;
6205;SDS011;3136;48.788;9.772;2023-05-08T05:58:50;17.17;;;12.33;;
6205;SDS011;3136;48.788;9.772;2023-05-08T06:01:16;16.27;;;13.17;;
6205;SDS011;3136;48.788;9.772;2023-05-08T06:03:41;18.57;;;14.90;;
6205;SDS011;3136;48.788;9.772;2023-05-08T06:06:07;16.73;;;13.03;;
6205;SDS011;3136;48.788;9.772;2023-05-08T06:08:33;15.53;;;13.17;;
6205;SDS011;3136;48.788;9.772;2023-05-08T06:10:59;16.03;;;13.63;;
6205;SDS011;3136;48.788;9.772;2023-05-08T06:13:25;16.17;;;14.07;;
6205;SDS011;3136;48.788;9.772;2023-05-08T06:15:52;18.47;;;13.33;;
6205;SDS011;3136;48.788;9.772;2023-05-08T06:18:20;15.73;;;13.13;;
6205;SDS011;3136;48.788;9.772;2023-05-08T06:20:46;16.90;;;14.40;;
6205;SDS011;3136;48.788;9.772;2023-05-08T06:23:11;15.20;;;13.40;;
6205;SDS011;3136;48.788;9.772;2023-05-08T06:25:37;17.93;;;14.10;;
6205;SDS011;3136;48.788;9.772;2023-05-08T06:28:03;17.77;;;13.47;;
6205;SDS011;3136;48.788;9.772;2023-05-08T06:30:30;16.90;;;13.50;;
6205;SDS011;3136;48.788;9.772;2023-05-08T06:32:56;14.47;;;12.80;;
6205;SDS011;3136;48.788;9.772;2023-05-08T06:35:21;14.33;;;12.77;;
6205;SDS011;3136;48.788;9.772;2023-05-08T06:37:47;17.53;;;14.13;;
6205;SDS011;3136;48.788;9.772;2023-05-08T06:40:12;14.10;;;12.60;;
6205;SDS011;3136;48.788;9.772;2023-05-08T06:42:39;15.60;;;13.27;;
6205;SDS011;3136;48.788;9.772;2023-05-08T06:45:05;13.47;;;12.07;;
6205;SDS011;3136;48.788;9.772;2023-05-08T06:47:32;12.77;;;11.40;;
6205;SDS011;3136;48.788;9.772;2023-05-08T06:49:57;13.70;;;11.83;;
6205;SDS011;3136;48.788;9.772;2023-05-08T06:52:24;14.07;;;12.57;;
6205;SDS011;3136;48.788;9.772;2023-05-08T06:54:50;13.70;;;12.30;;
6205;SDS011;3136;48.788;9.772;2023-05-08T06:57:15;15.00;;;12.47;;
6205;SDS011;3136;48.788;9.772;2023-05-08T06:59:41;15.53;;;11.70;;
6205;SDS011;3136;48.788;9.772;2023-05-08T07:02:07;15.03;;;12.77;;
6205;SDS011;3136;48.788;9.772;2023-05-08T07:04:34;13.73;;;12.20;;
6205;SDS011;3136;48.788;9.772;2023-05-08T07:07:00;16.67;;;12.63;;
6205;SDS011;3136;48.788;9.772;2023-05-08T07:09:26;13.90;;;11.50;;
6205;SDS011;3136;48.788;9.772;2023-05-08T07:11:51;13.90;;;12.50;;
6205;SDS011;3136;48.788;9.772;2023-05-08T07:14:17;12.73;;;11.50;;
6205;SDS011;3136;48.788;9.772;2023-05-08T07:16:42;11.60;;;10.50;;
6205;SDS011;3136;48.788;9.772;2023-05-08T07:19:08;14.33;;;11.00;;
6205;SDS011;3136;48.788;9.772;2023-05-08T07:21:33;13.60;;;11.27;;
6205;SDS011;3136;48.788;9.772;2023-05-08T07:23:59;11.40;;;10.30;;
6205;SDS011;3136;48.788;9.772;2023-05-08T07:26:24;12.20;;;10.40;;
6205;SDS011;3136;48.788;9.772;2023-05-08T07:28:51;11.80;;;10.17;;
6205;SDS011;3136;48.788;9.772;2023-05-08T07:31:18;10.73;;;9.73;;
6205;SDS011;3136;48.788;9.772;2023-05-08T07:33:44;11.60;;;10.33;;
6205;SDS011;3136;48.788;9.772;2023-05-08T07:36:10;11.00;;;10.00;;
6205;SDS011;3136;48.788;9.772;2023-05-08T07:38:36;10.40;;;9.47;;
6205;SDS011;3136;48.788;9.772;2023-05-08T07:41:02;10.37;;;9.37;;
6205;SDS011;3136;48.788;9.772;2023-05-08T07:43:29;9.90;;;8.90;;
6205;SDS011;3136;48.788;9.772;2023-05-08T07:45:57;10.53;;;9.53;;
6205;SDS011;3136;48.788;9.772;2023-05-08T07:48:23;10.80;;;9.70;;
6205;SDS011;3136;48.788;9.772;2023-05-08T07:50:49;12.17;;;10.07;;
6205;SDS011;3136;48.788;9.772;2023-05-08T07:53:15;10.17;;;9.17;;
6205;SDS011;3136;48.788;9.772;2023-05-08T07:55:41;10.33;;;9.33;;
6205;SDS011;3136;48.788;9.772;2023-05-08T07:58:06;10.43;;;9.43;;
6205;SDS011;3136;48.788;9.772;2023-05-08T08:00:32;9.30;;;8.40;;
6205;SDS011;3136;48.788;9.772;2023-05-08T08:02:58;9.47;;;8.47;;
6205;SDS011;3136;48.788;9.772;2023-05-08T08:05:23;9.33;;;8.43;;
6205;SDS011;3136;48.788;9.772;2023-05-08T08:07:49;10.50;;;8.30;;
6205;SDS011;3136;48.788;9.772;2023-05-08T08:10:15;11.03;;;8.33;;
6205;SDS011;3136;48.788;9.772;2023-05-08T08:12:40;8.70;;;7.90;;
6205;SDS011;3136;48.788;9.772;2023-05-08T08:15:06;10.30;;;8.07;;
6205;SDS011;3136;48.788;9.772;2023-05-08T08:17:32;9.27;;;8.30;;
6205;SDS011;3136;48.788;9.772;2023-05-08T08:19:58;9.70;;;8.43;;
6205;SDS011;3136;48.788;9.772;2023-05-08T08:22:24;9.57;;;8.10;;
6205;SDS011;3136;48.788;9.772;2023-05-08T08:24:50;9.60;;;8.30;;
6205;SDS011;3136;48.788;9.772;2023-05-08T08:27:16;9.03;;;8.13;;
6205;SDS011;3136;48.788;9.772;2023-05-08T08:29:41;9.00;;;8.13;;
6205;SDS011;3136;48.788;9.772;2023-05-08T08:32:07;10.07;;;9.10;;
6205;SDS011;3136;48.788;9.772;2023-05-08T08:34:33;9.90;;;8.87;;
6205;SDS011;3136;48.788;9.772;2023-05-08T08:36:59;9.00;;;8.10;;
6205;SDS011;3136;48.788;9.772;2023-05-08T08:39:24;9.60;;;8.60;;
6205;SDS011;3136;48.788;9.772;2023-05-08T08:41:50;9.83;;;8.83;;
6205;SDS011;3136;48.788;9.772;2023-05-08T08:44:15;10.37;;;9.20;;
6205;SDS011;3136;48.788;9.772;2023-05-08T08:46:48;10.97;;;9.00;;
6205;SDS011;3136;48.788;9.772;2023-05-08T08:49:22;9.90;;;8.93;;
6205;SDS011;3136;48.788;9.772;2023-05-08T08:51:54;10.97;;;8.87;;
6205;SDS011;3136;48.788;9.772;2023-05-08T08:54:23;9.87;;;8.83;;
6205;SDS011;3136;48.788;9.772;2023-05-08T08:56:52;11.10;;;9.13;;
6205;SDS011;3136;48.788;9.772;2023-05-08T08:59:19;10.00;;;9.00;;
6205;SDS011;3136;48.788;9.772;2023-05-08T09:01:47;10.30;;;9.37;;
6205;SDS011;3136;48.788;9.772;2023-05-08T09:04:18;10.00;;;8.93;;
6205;SDS011;3136;48.788;9.772;2023-05-08T09:06:44;10.73;;;9.63;;
6205;SDS011;3136;48.788;9.772;2023-05-08T09:09:10;10.60;;;9.50;;
6205;SDS011;3136;48.788;9.772;2023-05-08T09:11:37;10.47;;;9.47;;
6205;SDS011;3136;48.788;9.772;2023-05-08T09:14:04;10.23;;;9.23;;
6205;SDS011;3136;48.788;9.772;2023-05-08T09:16:29;10.30;;;9.40;;
6205;SDS011;3136;48.788;9.772;2023-05-08T09:18:55;10.30;;;9.30;;
6205;SDS011;3136;48.788;9.772;2023-05-08T09:21:20;10.80;;;9.70;;
6205;SDS011;3136;48.788;9.772;2023-05-08T09:23:53;9.87;;;8.87;;
6205;SDS011;3136;48.788;9.772;2023-05-08T09:26:40;10.87;;;9.77;;
6205;SDS011;3136;48.788;9.772;2023-05-08T09:29:13;11.70;;;9.67;;
6205;SDS011;3136;48.788;9.772;2023-05-08T09:31:45;10.33;;;9.23;;
6205;SDS011;3136;48.788;9.772;2023-05-08T09:34:27;10.57;;;9.57;;
6205;SDS011;3136;48.788;9.772;2023-05-08T09:36:55;11.70;;;9.80;;
6205;SDS011;3136;48.788;9.772;2023-05-08T09:39:35;11.17;;;9.93;;
6205;SDS011;3136;48.788;9.772;2023-05-08T09:42:04;11.80;;;10.57;;
6205;SDS011;3136;48.788;9.772;2023-05-08T09:47:15;12.53;;;9.07;;
6205;SDS011;3136;48.788;9.772;2023-05-08T09:52:34;9.63;;;8.63;;
6205;SDS011;3136;48.788;9.772;2023-05-08T09:57:31;13.77;;;8.70;;
6205;SDS011;3136;48.788;9.772;2023-05-08T10:02:30;12.60;;;8.90;;
6205;SDS011;3136;48.788;9.772;2023-05-08T10:04:56;8.77;;;7.80;;
6205;SDS011;3136;48.788;9.772;2023-05-08T10:10:01;8.73;;;7.90;;
6205;SDS011;3136;48.788;9.772;2023-05-08T10:12:28;9.17;;;8.03;;
6205;SDS011;3136;48.788;9.772;2023-05-08T10:14:54;9.13;;;8.23;;
6205;SDS011;3136;48.788;9.772;2023-05-08T10:20:06;8.77;;;7.90;;
6205;SDS011;3136;48.788;9.772;2023-05-08T10:22:35;10.33;;;7.53;;
6205;SDS011;3136;48.788;9.772;2023-05-08T10:25:01;10.33;;;7.80;;
6205;SDS011;3136;48.788;9.772;2023-05-08T10:27:38;8.30;;;7.60;;
6205;SDS011;3136;48.788;9.772;2023-05-08T10:30:12;12.87;;;8.03;;
6205;SDS011;3136;48.788;9.772;2023-05-08T10:32:44;10.67;;;8.20;;
6205;SDS011;3136;48.788;9.772;2023-05-08T10:35:15;8.70;;;7.80;;
6205;SDS011;3136;48.788;9.772;2023-05-08T10:37:42;8.17;;;7.47;;
6205;SDS011;3136;48.788;9.772;2023-05-08T10:40:09;8.90;;;8.00;;
6205;SDS011;3136;48.788;9.772;2023-05-08T10:42:37;8.47;;;7.57;;
6205;SDS011;3136;48.788;9.772;2023-05-08T10:45:04;8.50;;;7.60;;
6205;SDS011;3136;48.788;9.772;2023-05-08T10:50:10;8.90;;;7.73;;
6205;SDS011;3136;48.788;9.772;2023-05-08T10:52:49;8.50;;;7.70;;
6205;SDS011;3136;48.788;9.772;2023-05-08T10:55:29;9.23;;;7.50;;
6205;SDS011;3136;48.788;9.772;2023-05-08T10:58:46;8.50;;;7.70;;
6205;SDS011;3136;48.788;9.772;2023-05-08T11:03:25;8.57;;;7.50;;
6205;SDS011;3136;48.788;9.772;2023-05-08T11:05:52;9.30;;;7.60;;
6205;SDS011;3136;48.788;9.772;2023-05-08T11:08:22;8.73;;;7.83;;
6205;SDS011;3136;48.788;9.772;2023-05-08T11:10:51;8.47;;;7.67;;
6205;SDS011;3136;48.788;9.772;2023-05-08T11:13:36;9.27;;;8.17;;
6205;SDS011;3136;48.788;9.772;2023-05-08T11:16:04;9.77;;;8.37;;
6205;SDS011;3136;48.788;9.772;2023-05-08T11:18:30;8.73;;;7.83;;
6205;SDS011;3136;48.788;9.772;2023-05-08T11:20:57;9.23;;;8.33;;
6205;SDS011;3136;48.788;9.772;2023-05-08T11:23:34;9.57;;;8.60;;
6205;SDS011;3136;48.788;9.772;2023-05-08T11:26:04;8.90;;;8.00;;
6205;SDS011;3136;48.788;9.772;2023-05-08T11:28:35;10.37;;;8.30;;
6205;SDS011;3136;48.788;9.772;2023-05-08T11:31:03;8.30;;;7.50;;
6205;SDS011;3136;48.788;9.772;2023-05-08T11:33:33;9.47;;;7.33;;
6205;SDS011;3136;48.788;9.772;2023-05-08T11:38:34;8.30;;;7.47;;
6205;SDS011;3136;48.788;9.772;2023-05-08T11:47:09;10.93;;;8.00;;
6205;SDS011;3136;48.788;9.772;2023-05-08T11:49:20;9.73;;;7.60;;
6205;SDS011;3136;48.788;9.772;2023-05-08T11:51:48;9.67;;;7.60;;
6205;SDS011;3136;48.788;9.772;2023-05-08T11:54:18;8.43;;;7.53;;
6205;SDS011;3136;48.788;9.772;2023-05-08T11:56:46;9.23;;;7.67;;
6205;SDS011;3136;48.788;9.772;2023-05-08T11:59:18;9.77;;;7.67;;
6205;SDS011;3136;48.788;9.772;2023-05-08T12:01:47;8.20;;;7.40;;
6205;SDS011;3136;48.788;9.772;2023-05-08T12:04:13;8.00;;;7.20;;
6205;SDS011;3136;48.788;9.772;2023-05-08T12:06:39;8.07;;;7.37;;
6205;SDS011;3136;48.788;9.772;2023-05-08T12:09:09;7.83;;;7.00;;
6205;SDS011;3136;48.788;9.772;2023-05-08T12:11:39;8.63;;;7.23;;
6205;SDS011;3136;48.788;9.772;2023-05-08T12:14:07;8.10;;;7.23;;
6205;SDS011;3136;48.788;9.772;2023-05-08T12:16:37;8.10;;;7.30;;
6205;SDS011;3136;48.788;9.772;2023-05-08T12:19:03;12.37;;;7.57;;
6205;SDS011;3136;48.788;9.772;2023-05-08T12:21:36;9.77;;;7.57;;
6205;SDS011;3136;48.788;9.772;2023-05-08T12:24:05;8.07;;;7.37;;
6205;SDS011;3136;48.788;9.772;2023-05-08T12:26:35;9.27;;;8.23;;
6205;SDS011;3136;48.788;9.772;2023-05-08T12:29:03;8.67;;;7.37;;
6205;SDS011;3136;48.788;9.772;2023-05-08T12:31:29;7.30;;;6.60;;
6205;SDS011;3136;48.788;9.772;2023-05-08T12:33:55;7.97;;;6.77;;
6205;SDS011;3136;48.788;9.772;2023-05-08T12:36:22;8.87;;;7.97;;
6205;SDS011;3136;48.788;9.772;2023-05-08T12:38:49;9.57;;;7.80;;
6205;SDS011;3136;48.788;9.772;2023-05-08T12:41:14;8.33;;;7.43;;
6205;SDS011;3136;48.788;9.772;2023-05-08T12:43:47;7.67;;;6.93;;
6205;SDS011;3136;48.788;9.772;2023-05-08T12:46:13;8.37;;;7.10;;
6205;SDS011;3136;48.788;9.772;2023-05-08T12:48:41;8.13;;;7.20;;
6205;SDS011;3136;48.788;9.772;2023-05-08T12:51:09;7.40;;;6.70;;
6205;SDS011;3136;48.788;9.772;2023-05-08T12:53:36;7.47;;;6.67;;
6205;SDS011;3136;48.788;9.772;2023-05-08T12:56:02;6.57;;;6.03;;
6205;SDS011;3136;48.788;9.772;2023-05-08T12:58:32;7.07;;;6.37;;
6205;SDS011;3136;48.788;9.772;2023-05-08T13:01:11;6.70;;;6.10;;
6205;SDS011;3136;48.788;9.772;2023-05-08T13:03:38;7.07;;;6.10;;
6205;SDS011;3136;48.788;9.772;2023-05-08T13:06:04;6.80;;;6.20;;
6205;SDS011;3136;48.788;9.772;2023-05-08T13:08:37;9.03;;;6.60;;
6205;SDS011;3136;48.788;9.772;2023-05-08T13:11:03;7.10;;;5.77;;
6205;SDS011;3136;48.788;9.772;2023-05-08T13:13:30;6.40;;;5.70;;
6205;SDS011;3136;48.788;9.772;2023-05-08T13:16:00;6.37;;;5.77;;
6205;SDS011;3136;48.788;9.772;2023-05-08T13:18:27;7.07;;;6.47;;
6205;SDS011;3136;48.788;9.772;2023-05-08T13:20:53;6.67;;;6.07;;
6205;SDS011;3136;48.788;9.772;2023-05-08T13:23:20;7.33;;;6.20;;
6205;SDS011;3136;48.788;9.772;2023-05-08T13:25:46;8.17;;;5.80;;
6205;SDS011;3136;48.788;9.772;2023-05-08T13:28:12;7.57;;;6.80;;
6205;SDS011;3136;48.788;9.772;2023-05-08T13:30:37;8.67;;;6.63;;
6205;SDS011;3136;48.788;9.772;2023-05-08T13:33:03;8.00;;;7.20;;
6205;SDS011;3136;48.788;9.772;2023-05-08T13:35:30;8.40;;;7.20;;
6205;SDS011;3136;48.788;9.772;2023-05-08T13:37:56;6.87;;;6.17;;
6205;SDS011;3136;48.788;9.772;2023-05-08T13:40:22;7.63;;;6.50;;
6205;SDS011;3136;48.788;9.772;2023-05-08T13:42:48;10.50;;;7.10;;
6205;SDS011;3136;48.788;9.772;2023-05-08T13:45:15;8.53;;;7.07;;
6205;SDS011;3136;48.788;9.772;2023-05-08T13:47:42;7.37;;;6.67;;
6205;SDS011;3136;48.788;9.772;2023-05-08T13:50:09;8.07;;;7.23;;
6205;SDS011;3136;48.788;9.772;2023-05-08T13:52:35;8.30;;;6.97;;
6205;SDS011;3136;48.788;9.772;2023-05-08T13:55:01;7.00;;;6.40;;
6205;SDS011;3136;48.788;9.772;2023-05-08T13:57:29;7.83;;;6.93;;
6205;SDS011;3136;48.788;9.772;2023-05-08T13:59:54;7.37;;;6.67;;
6205;SDS011;3136;48.788;9.772;2023-05-08T14:02:20;8.33;;;7.10;;
6205;SDS011;3136;48.788;9.772;2023-05-08T14:04:45;8.90;;;6.93;;
6205;SDS011;3136;48.788;9.772;2023-05-08T14:07:11;7.47;;;6.77;;
6205;SDS011;3136;48.788;9.772;2023-05-08T14:09:36;7.53;;;6.73;;
6205;SDS011;3136;48.788;9.772;2023-05-08T14:12:02;8.23;;;6.70;;
6205;SDS011;3136;48.788;9.772;2023-05-08T14:14:28;6.60;;;5.93;;
6205;SDS011;3136;48.788;9.772;2023-05-08T14:16:53;6.90;;;6.20;;
6205;SDS011;3136;48.788;9.772;2023-05-08T14:19:19;6.20;;;5.60;;
6205;SDS011;3136;48.788;9.772;2023-05-08T14:21:45;14.67;;;6.23;;
6205;SDS011;3136;48.788;9.772;2023-05-08T14:24:10;5.57;;;5.07;;
6205;SDS011;3136;48.788;9.772;2023-05-08T14:26:36;4.93;;;4.53;;
6205;SDS011;3136;48.788;9.772;2023-05-08T14:29:04;5.20;;;4.70;;
6205;SDS011;3136;48.788;9.772;2023-05-08T14:31:30;5.03;;;4.63;;
6205;SDS011;3136;48.788;9.772;2023-05-08T14:33:58;6.23;;;4.83;;
6205;SDS011;3136;48.788;9.772;2023-05-08T14:36:24;6.43;;;5.03;;
6205;SDS011;3136;48.788;9.772;2023-05-08T14:38:51;6.00;;;4.53;;
6205;SDS011;3136;48.788;9.772;2023-05-08T14:41:17;5.73;;;4.77;;
6205;SDS011;3136;48.788;9.772;2023-05-08T14:43:42;6.87;;;4.77;;
6205;SDS011;3136;48.788;9.772;2023-05-08T14:46:08;6.37;;;4.70;;
6205;SDS011;3136;48.788;9.772;2023-05-08T14:48:33;4.70;;;4.30;;
6205;SDS011;3136;48.788;9.772;2023-05-08T14:50:59;5.03;;;4.63;;
6205;SDS011;3136;48.788;9.772;2023-05-08T14:53:25;6.37;;;5.03;;
6205;SDS011;3136;48.788;9.772;2023-05-08T14:55:50;6.50;;;4.60;;
6205;SDS011;3136;48.788;9.772;2023-05-08T14:58:19;7.53;;;5.30;;
6205;SDS011;3136;48.788;9.772;2023-05-08T15:00:45;6.97;;;5.10;;
6205;SDS011;3136;48.788;9.772;2023-05-08T15:03:10;6.10;;;4.40;;
6205;SDS011;3136;48.788;9.772;2023-05-08T15:05:36;6.47;;;4.40;;
6205;SDS011;3136;48.788;9.772;2023-05-08T15:08:02;9.37;;;4.90;;
6205;SDS011;3136;48.788;9.772;2023-05-08T15:10:29;4.23;;;3.83;;
6205;SDS011;3136;48.788;9.772;2023-05-08T15:12:54;7.03;;;4.57;;
6205;SDS011;3136;48.788;9.772;2023-05-08T15:15:20;4.20;;;3.80;;
6205;SDS011;3136;48.788;9.772;2023-05-08T15:17:46;5.27;;;3.90;;
6205;SDS011;3136;48.788;9.772;2023-05-08T15:20:11;4.73;;;4.23;;
6205;SDS011;3136;48.788;9.772;2023-05-08T15:22:37;6.60;;;4.80;;
6205;SDS011;3136;48.788;9.772;2023-05-08T15:25:03;4.90;;;4.40;;
6205;SDS011;3136;48.788;9.772;2023-05-08T15:27:31;6.20;;;4.00;;
6205;SDS011;3136;48.788;9.772;2023-05-08T15:29:57;5.23;;;3.80;;
6205;SDS011;3136;48.788;9.772;2023-05-08T15:32:23;4.00;;;3.60;;
6205;SDS011;3136;48.788;9.772;2023-05-08T15:34:49;4.13;;;3.70;;
6205;SDS011;3136;48.788;9.772;2023-05-08T15:37:14;5.27;;;3.43;;
6205;SDS011;3136;48.788;9.772;2023-05-08T15:39:40;3.57;;;3.27;;
6205;SDS011;3136;48.788;9.772;2023-05-08T15:42:07;4.47;;;3.27;;
6205;SDS011;3136;48.788;9.772;2023-05-08T15:44:32;4.43;;;3.27;;
6205;SDS011;3136;48.788;9.772;2023-05-08T15:46:58;3.90;;;3.03;;
6205;SDS011;3136;48.788;9.772;2023-05-08T15:49:23;6.50;;;3.63;;
6205;SDS011;3136;48.788;9.772;2023-05-08T15:51:51;3.93;;;3.53;;
6205;SDS011;3136;48.788;9.772;2023-05-08T15:54:17;3.63;;;3.33;;
6205;SDS011;3136;48.788;9.772;2023-05-08T15:56:42;4.00;;;3.47;;
6205;SDS011;3136;48.788;9.772;2023-05-08T15:59:08;4.00;;;3.60;;
6205;SDS011;3136;48.788;9.772;2023-05-08T16:01:33;8.93;;;3.80;;
6205;SDS011;3136;48.788;9.772;2023-05-08T16:03:59;3.73;;;3.37;;
6205;SDS011;3136;48.788;9.772;2023-05-08T16:06:25;4.83;;;3.40;;
6205;SDS011;3136;48.788;9.772;2023-05-08T16:08:51;5.30;;;3.20;;
6205;SDS011;3136;48.788;9.772;2023-05-08T16:11:16;4.97;;;3.73;;